Time;durP1;ratioP1;P1;durP2;ratioP2;P2;SDS_P1;SDS_P2;PMS_P1;PMS_P2;Temp;Humidity;BMP_temperature;BMP_pressure;BME280_temperature;BME280_humidity;BME280_pressure;Samples;Min_cycle;Max_cycle;Signal;HPM_P1;HPM_P2
2023/09/10 00:01:25;;;;;;;3.20;3.03;;;;;;;;;;5034945;28;20025;-28
2023/09/10 00:03:51;;;;;;;3.42;3.22;;;;;;;;;;5034775;28;20124;-29
2023/09/10 00:06:17;;;;;;;2.45;2.35;;;;;;;;;;5034699;28;20084;-27
2023/09/10 00:08:43;;;;;;;2.95;2.83;;;;;;;;;;5035282;28;20053;-29
2023/09/10 00:11:09;;;;;;;3.00;2.83;;;;;;;;;;5035187;28;20108;-26
2023/09/10 00:13:35;;;;;;;2.70;2.50;;;;;;;;;;5034930;28;20030;-28
2023/09/10 00:16:02;;;;;;;2.90;2.80;;;;;;;;;;5034715;28;20083;-25
2023/09/10 00:18:28;;;;;;;3.38;3.17;;;;;;;;;;5034664;28;20482;-28
2023/09/10 00:20:54;;;;;;;2.45;2.35;;;;;;;;;;5034667;28;20399;-27
2023/09/10 00:23:21;;;;;;;2.35;2.25;;;;;;;;;;5034824;28;20029;-29
2023/09/10 00:25:47;;;;;;;2.92;2.80;;;;;;;;;;5034822;28;20449;-28
2023/09/10 00:28:13;;;;;;;2.92;2.72;;;;;;;;;;5034415;28;20044;-28
2023/09/10 00:30:40;;;;;;;3.08;2.90;;;;;;;;;;5034830;28;20355;-28
2023/09/10 00:33:06;;;;;;;2.72;2.63;;;;;;;;;;5034696;28;20026;-28
2023/09/10 00:35:32;;;;;;;2.55;2.45;;;;;;;;;;5034508;28;20026;-26
2023/09/10 00:37:58;;;;;;;2.60;2.50;;;;;;;;;;5034479;28;20056;-27
2023/09/10 00:40:24;;;;;;;3.25;3.05;;;;;;;;;;5034459;28;20026;-26
2023/09/10 00:42:50;;;;;;;3.33;3.13;;;;;;;;;;5017247;28;20037;-25
2023/09/10 00:45:16;;;;;;;3.00;2.80;;;;;;;;;;5034388;28;20087;-28
2023/09/10 00:47:45;;;;;;;2.42;2.33;;;;;;;;;;5034552;28;20022;-29
2023/09/10 00:50:11;;;;;;;3.22;3.03;;;;;;;;;;5034344;28;20060;-30
2023/09/10 00:52:39;;;;;;;3.00;2.80;;;;;;;;;;5034286;28;20022;-29
2023/09/10 00:55:06;;;;;;;2.70;2.60;;;;;;;;;;5034847;28;20026;-26
2023/09/10 00:57:32;;;;;;;2.20;2.10;;;;;;;;;;5034314;28;20030;-30
2023/09/10 00:59:58;;;;;;;2.92;2.78;;;;;;;;;;5034207;28;20033;-29
2023/09/10 01:02:25;;;;;;;3.00;2.80;;;;;;;;;;5034457;28;20029;-29
2023/09/10 01:04:51;;;;;;;2.22;2.13;;;;;;;;;;5034526;28;21580;-27
2023/09/10 01:07:17;;;;;;;2.97;2.78;;;;;;;;;;5037786;28;20096;-27
2023/09/10 01:09:43;;;;;;;2.38;2.28;;;;;;;;;;5038545;28;20033;-29
2023/09/10 01:12:21;;;;;;;3.20;2.90;;;;;;;;;;5038236;28;20333;-27
2023/09/10 01:14:47;;;;;;;2.22;2.13;;;;;;;;;;5038294;28;20025;-28
2023/09/10 01:17:36;;;;;;;2.40;2.30;;;;;;;;;;5037983;28;20104;-27
2023/09/10 01:20:08;;;;;;;2.95;2.80;;;;;;;;;;5037911;28;20061;-29
2023/09/10 01:22:52;;;;;;;2.63;2.53;;;;;;;;;;5037762;28;20037;-25
2023/09/10 01:25:19;;;;;;;3.05;2.85;;;;;;;;;;5038076;28;20125;-27
2023/09/10 01:27:46;;;;;;;2.33;2.22;;;;;;;;;;5037656;28;20111;-26
2023/09/10 01:30:13;;;;;;;3.08;2.88;;;;;;;;;;5038001;28;20033;-28
2023/09/10 01:32:42;;;;;;;3.88;3.58;;;;;;;;;;5037842;28;20021;-26
2023/09/10 01:35:08;;;;;;;2.80;2.65;;;;;;;;;;5037537;28;20017;-29
2023/09/10 01:37:41;;;;;;;2.42;2.33;;;;;;;;;;5037595;28;20038;-27
2023/09/10 01:40:09;;;;;;;3.13;2.95;;;;;;;;;;5037828;28;20036;-27
2023/09/10 01:42:35;;;;;;;2.38;2.28;;;;;;;;;;5037426;28;20026;-28
2023/09/10 01:45:02;;;;;;;2.42;2.33;;;;;;;;;;5037386;28;20033;-24
2023/09/10 01:47:29;;;;;;;2.80;2.70;;;;;;;;;;5037669;28;20107;-26
2023/09/10 01:49:55;;;;;;;2.30;2.20;;;;;;;;;;5037219;28;20021;-28
2023/09/10 01:52:21;;;;;;;2.40;2.30;;;;;;;;;;5037242;28;20064;-28
2023/09/10 01:54:47;;;;;;;2.38;2.20;;;;;;;;;;5037540;28;20083;-28
2023/09/10 01:57:13;;;;;;;2.92;2.72;;;;;;;;;;5037730;28;20022;-28
2023/09/10 01:59:39;;;;;;;2.20;2.10;;;;;;;;;;5037164;28;20031;-27
2023/09/10 02:02:05;;;;;;;2.70;2.60;;;;;;;;;;5037320;28;20031;-26
2023/09/10 02:04:31;;;;;;;2.70;2.50;;;;;;;;;;5037175;28;20033;-25
2023/09/10 02:06:57;;;;;;;2.65;2.55;;;;;;;;;;5037008;28;20029;-25
2023/09/10 02:09:23;;;;;;;2.55;2.45;;;;;;;;;;5036933;28;20037;-28
2023/09/10 02:11:50;;;;;;;2.42;2.33;;;;;;;;;;5036804;28;20037;-25
2023/09/10 02:14:16;;;;;;;3.13;2.92;;;;;;;;;;5037203;28;20021;-29
2023/09/10 02:16:42;;;;;;;2.15;2.05;;;;;;;;;;5036307;28;20087;-28
2023/09/10 02:19:08;;;;;;;2.13;1.95;;;;;;;;;;5036529;28;20102;-29
2023/09/10 02:21:34;;;;;;;2.70;2.60;;;;;;;;;;5036755;28;20573;-26
2023/09/10 02:24:02;;;;;;;2.90;2.80;;;;;;;;;;5036604;28;20033;-28
2023/09/10 02:26:28;;;;;;;2.53;2.42;;;;;;;;;;5036674;28;20032;-27
2023/09/10 02:28:54;;;;;;;2.40;2.30;;;;;;;;;;5037046;28;20452;-28
2023/09/10 02:31:25;;;;;;;2.28;2.17;;;;;;;;;;5036847;28;20021;-29
2023/09/10 02:33:53;;;;;;;2.60;2.50;;;;;;;;;;5036567;28;20024;-28
2023/09/10 02:36:19;;;;;;;2.72;2.63;;;;;;;;;;5036470;28;20017;-27
2023/09/10 02:38:45;;;;;;;3.08;2.88;;;;;;;;;;5036435;28;20045;-28
2023/09/10 02:41:11;;;;;;;3.03;2.83;;;;;;;;;;5036644;28;20034;-27
2023/09/10 02:43:37;;;;;;;2.50;2.40;;;;;;;;;;5036250;28;20025;-25
2023/09/10 02:46:03;;;;;;;2.83;2.63;;;;;;;;;;5036830;28;20363;-29
2023/09/10 02:48:29;;;;;;;2.33;2.22;;;;;;;;;;5036157;28;20065;-27
2023/09/10 02:50:56;;;;;;;2.47;2.38;;;;;;;;;;5018756;28;20049;-26
2023/09/10 02:53:23;;;;;;;2.47;2.38;;;;;;;;;;5036053;28;20021;-24
2023/09/10 02:55:58;;;;;;;2.60;2.50;;;;;;;;;;5036339;28;20041;-26
2023/09/10 02:58:24;;;;;;;2.38;2.28;;;;;;;;;;5036060;28;20032;-30
2023/09/10 03:00:50;;;;;;;2.40;2.30;;;;;;;;;;5036027;28;20048;-27
2023/09/10 03:03:18;;;;;;;2.17;2.08;;;;;;;;;;5035924;28;20111;-28
2023/09/10 03:05:44;;;;;;;2.22;2.13;;;;;;;;;;5035666;28;20484;-28
2023/09/10 03:08:10;;;;;;;2.28;2.17;;;;;;;;;;5035819;28;20030;-28
2023/09/10 03:10:36;;;;;;;2.30;2.20;;;;;;;;;;5036415;28;20025;-27
2023/09/10 03:13:03;;;;;;;2.72;2.63;;;;;;;;;;5035691;28;20079;-27
2023/09/10 03:15:29;;;;;;;2.60;2.50;;;;;;;;;;5036266;28;20039;-26
2023/09/10 03:17:55;;;;;;;2.33;2.22;;;;;;;;;;5035952;28;20093;-27
2023/09/10 03:20:21;;;;;;;2.63;2.50;;;;;;;;;;5035659;28;20021;-27
2023/09/10 03:22:49;;;;;;;2.55;2.45;;;;;;;;;;5035535;28;20021;-28
2023/09/10 03:25:15;;;;;;;2.55;2.45;;;;;;;;;;5035514;28;20029;-26
2023/09/10 03:27:41;;;;;;;2.35;2.25;;;;;;;;;;5036036;28;20025;-28
2023/09/10 03:30:07;;;;;;;2.70;2.60;;;;;;;;;;5035460;28;20057;-29
2023/09/10 03:32:34;;;;;;;2.50;2.30;;;;;;;;;;5035393;28;20360;-28
2023/09/10 03:35:00;;;;;;;2.72;2.53;;;;;;;;;;5035623;28;20070;-30
2023/09/10 03:37:26;;;;;;;2.88;2.75;;;;;;;;;;5035345;28;20021;-26
2023/09/10 03:39:52;;;;;;;2.20;2.10;;;;;;;;;;5035276;28;20025;-26
2023/09/10 03:42:18;;;;;;;2.38;2.28;;;;;;;;;;5035454;28;20380;-27
2023/09/10 03:44:44;;;;;;;3.17;3.00;;;;;;;;;;5035465;28;20033;-26
2023/09/10 03:47:10;;;;;;;2.58;2.47;;;;;;;;;;5035416;28;20096;-30
2023/09/10 03:49:36;;;;;;;2.58;2.47;;;;;;;;;;5035548;28;20087;-29
2023/09/10 03:52:14;;;;;;;2.70;2.60;;;;;;;;;;5035695;28;20045;-27
2023/09/10 03:54:40;;;;;;;2.55;2.45;;;;;;;;;;5035033;28;20445;-29
2023/09/10 03:57:06;;;;;;;2.60;2.40;;;;;;;;;;5035272;28;20109;-28
2023/09/10 03:59:32;;;;;;;2.20;2.10;;;;;;;;;;5035199;28;20044;-28
2023/09/10 04:01:59;;;;;;;2.08;1.98;;;;;;;;;;5035327;28;20107;-27
2023/09/10 04:04:25;;;;;;;2.58;2.47;;;;;;;;;;5034881;28;20088;-27
2023/09/10 04:06:51;;;;;;;2.42;2.28;;;;;;;;;;5034707;28;20079;-26
2023/09/10 04:09:17;;;;;;;2.50;2.40;;;;;;;;;;5035011;28;20399;-27
2023/09/10 04:11:45;;;;;;;2.53;2.42;;;;;;;;;;5034616;28;20140;-26
2023/09/10 04:14:11;;;;;;;2.42;2.33;;;;;;;;;;5035006;28;20451;-26
2023/09/10 04:16:37;;;;;;;2.55;2.45;;;;;;;;;;5034961;28;20029;-26
2023/09/10 04:19:03;;;;;;;2.60;2.40;;;;;;;;;;5034700;28;20056;-30
2023/09/10 04:21:29;;;;;;;2.25;2.15;;;;;;;;;;5034923;28;20040;-28
2023/09/10 04:23:55;;;;;;;2.13;2.03;;;;;;;;;;5034853;28;20361;-27
2023/09/10 04:26:21;;;;;;;2.80;2.60;;;;;;;;;;5035361;28;20052;-27
2023/09/10 04:28:48;;;;;;;2.63;2.42;;;;;;;;;;5034511;28;20021;-26
2023/09/10 04:31:14;;;;;;;2.63;2.53;;;;;;;;;;5034801;28;20029;-26
2023/09/10 04:33:40;;;;;;;2.33;2.22;;;;;;;;;;5034710;28;20037;-26
2023/09/10 04:36:06;;;;;;;2.50;2.40;;;;;;;;;;5034777;28;20030;-29
2023/09/10 04:38:33;;;;;;;2.25;2.15;;;;;;;;;;5034489;28;20025;-27
2023/09/10 04:40:59;;;;;;;2.20;2.10;;;;;;;;;;5035958;28;20025;-28
2023/09/10 04:43:25;;;;;;;2.47;2.38;;;;;;;;;;5038511;28;20373;-28
2023/09/10 04:45:51;;;;;;;2.63;2.42;;;;;;;;;;5038540;28;20022;-28
2023/09/10 04:48:17;;;;;;;2.70;2.50;;;;;;;;;;5038420;28;20026;-28
2023/09/10 04:50:44;;;;;;;2.10;2.00;;;;;;;;;;5038471;28;20026;-25
2023/09/10 04:53:10;;;;;;;2.45;2.35;;;;;;;;;;5038482;28;20083;-26
2023/09/10 04:55:36;;;;;;;3.05;2.92;;;;;;;;;;5038643;28;20025;-27
2023/09/10 04:58:04;;;;;;;1.98;1.88;;;;;;;;;;5038596;28;20088;-27
2023/09/10 05:00:30;;;;;;;2.67;2.58;;;;;;;;;;5038310;28;20041;-26
2023/09/10 05:02:56;;;;;;;2.47;2.30;;;;;;;;;;5038320;28;20363;-28
2023/09/10 05:05:22;;;;;;;2.22;2.13;;;;;;;;;;5038208;28;20350;-28
2023/09/10 05:07:49;;;;;;;2.10;2.00;;;;;;;;;;5038350;28;20049;-28
2023/09/10 05:10:16;;;;;;;2.83;2.67;;;;;;;;;;5038115;28;20030;-28
2023/09/10 05:12:42;;;;;;;2.42;2.25;;;;;;;;;;5038233;28;20407;-27
2023/09/10 05:15:09;;;;;;;2.47;2.38;;;;;;;;;;5038264;28;20431;-28
2023/09/10 05:17:35;;;;;;;2.78;2.67;;;;;;;;;;5038217;28;20444;-28
2023/09/10 05:20:02;;;;;;;2.50;2.40;;;;;;;;;;5038153;28;20091;-29
2023/09/10 05:22:29;;;;;;;2.42;2.33;;;;;;;;;;5037800;28;20021;-26
2023/09/10 05:24:55;;;;;;;2.40;2.30;;;;;;;;;;5038092;28;20040;-30
2023/09/10 05:27:21;;;;;;;2.20;2.10;;;;;;;;;;5037764;28;20068;-28
2023/09/10 05:29:47;;;;;;;2.75;2.55;;;;;;;;;;5037627;28;20040;-27
2023/09/10 05:32:13;;;;;;;2.50;2.40;;;;;;;;;;5037652;28;20018;-26
2023/09/10 05:34:40;;;;;;;2.45;2.35;;;;;;;;;;5037664;28;20048;-29
2023/09/10 05:37:06;;;;;;;2.42;2.33;;;;;;;;;;5037844;28;20096;-29
2023/09/10 05:39:32;;;;;;;2.38;2.28;;;;;;;;;;5037573;28;20466;-29
2023/09/10 05:41:58;;;;;;;2.20;2.10;;;;;;;;;;5037745;28;20057;-28
2023/09/10 05:44:24;;;;;;;2.75;2.58;;;;;;;;;;5037510;28;20030;-28
2023/09/10 05:46:50;;;;;;;2.90;2.80;;;;;;;;;;5037354;28;20121;-27
2023/09/10 05:49:17;;;;;;;2.97;2.78;;;;;;;;;;5037260;28;20026;-25
2023/09/10 05:51:43;;;;;;;2.80;2.60;;;;;;;;;;5037218;28;20018;-28
2023/09/10 05:54:09;;;;;;;2.40;2.20;;;;;;;;;;5037164;28;20092;-27
2023/09/10 05:56:35;;;;;;;2.53;2.40;;;;;;;;;;5037282;28;20029;-29
2023/09/10 05:59:01;;;;;;;2.28;2.17;;;;;;;;;;5037187;28;20021;-27
2023/09/10 06:01:28;;;;;;;2.58;2.47;;;;;;;;;;5037427;28;20064;-27
2023/09/10 06:03:54;;;;;;;2.97;2.78;;;;;;;;;;5037018;28;20025;-30
2023/09/10 06:06:20;;;;;;;2.40;2.30;;;;;;;;;;5036895;28;20056;-26
2023/09/10 06:08:46;;;;;;;2.60;2.50;;;;;;;;;;5037212;28;20029;-26
2023/09/10 06:11:12;;;;;;;2.53;2.42;;;;;;;;;;5036982;28;20029;-26
2023/09/10 06:13:38;;;;;;;2.70;2.60;;;;;;;;;;5037094;28;20322;-27
2023/09/10 06:16:05;;;;;;;2.65;2.45;;;;;;;;;;5037139;28;20107;-29
2023/09/10 06:18:31;;;;;;;2.45;2.33;;;;;;;;;;5036807;28;20025;-26
2023/09/10 06:20:58;;;;;;;2.33;2.22;;;;;;;;;;5036763;28;20021;-26
2023/09/10 06:23:24;;;;;;;2.63;2.50;;;;;;;;;;5036665;28;20457;-30
2023/09/10 06:25:50;;;;;;;2.55;2.45;;;;;;;;;;5036701;28;20033;-27
2023/09/10 06:28:18;;;;;;;2.50;2.40;;;;;;;;;;5036574;28;20109;-29
2023/09/10 06:30:44;;;;;;;2.17;2.08;;;;;;;;;;5037150;28;20389;-28
2023/09/10 06:33:10;;;;;;;2.50;2.40;;;;;;;;;;5036479;28;20022;-26
2023/09/10 06:35:36;;;;;;;2.55;2.45;;;;;;;;;;5036795;28;20021;-27
2023/09/10 06:38:02;;;;;;;2.55;2.45;;;;;;;;;;5036727;28;20076;-26
2023/09/10 06:40:28;;;;;;;3.58;3.28;;;;;;;;;;5036687;28;20032;-26
2023/09/10 06:42:54;;;;;;;2.45;2.30;;;;;;;;;;5036337;28;20025;-30
2023/09/10 06:45:20;;;;;;;2.60;2.40;;;;;;;;;;5037139;28;20083;-28
2023/09/10 06:47:46;;;;;;;2.88;2.67;;;;;;;;;;5036331;28;20147;-28
2023/09/10 06:50:13;;;;;;;2.25;2.15;;;;;;;;;;5018721;28;20510;-27
2023/09/10 06:52:39;;;;;;;2.45;2.35;;;;;;;;;;5036403;28;20022;-29
2023/09/10 06:55:05;;;;;;;2.75;2.65;;;;;;;;;;5036149;28;20021;-26
2023/09/10 06:57:32;;;;;;;2.45;2.35;;;;;;;;;;5036401;28;20099;-26
2023/09/10 06:59:58;;;;;;;2.50;2.40;;;;;;;;;;5036284;28;20029;-27
2023/09/10 07:02:25;;;;;;;2.13;2.03;;;;;;;;;;5035838;28;20026;-26
2023/09/10 07:04:51;;;;;;;2.35;2.25;;;;;;;;;;5035192;28;20036;-29
2023/09/10 07:07:17;;;;;;;2.70;2.50;;;;;;;;;;5036490;28;20090;-28
2023/09/10 07:09:43;;;;;;;2.15;2.05;;;;;;;;;;5035778;28;20032;-29
2023/09/10 07:12:10;;;;;;;2.60;2.40;;;;;;;;;;5036021;28;20037;-29
2023/09/10 07:14:36;;;;;;;2.50;2.40;;;;;;;;;;5035798;28;20029;-30
2023/09/10 07:17:02;;;;;;;2.78;2.63;;;;;;;;;;5036256;28;20068;-30
2023/09/10 07:19:28;;;;;;;2.33;2.22;;;;;;;;;;5035948;28;20029;-27
2023/09/10 07:21:55;;;;;;;2.20;2.00;;;;;;;;;;5035533;28;20053;-27
2023/09/10 07:24:21;;;;;;;2.58;2.42;;;;;;;;;;5035641;28;20123;-27
2023/09/10 07:26:47;;;;;;;2.55;2.45;;;;;;;;;;5035791;28;20025;-27
2023/09/10 07:29:16;;;;;;;2.33;2.22;;;;;;;;;;5035426;28;20447;-29
2023/09/10 07:31:43;;;;;;;2.50;2.40;;;;;;;;;;5035727;28;20105;-26
2023/09/10 07:34:09;;;;;;;2.35;2.25;;;;;;;;;;5035581;28;20030;-26
2023/09/10 07:36:38;;;;;;;2.53;2.42;;;;;;;;;;5035608;28;20038;-27
2023/09/10 07:39:04;;;;;;;2.22;2.13;;;;;;;;;;5035555;28;20395;-28
2023/09/10 07:41:30;;;;;;;2.58;2.47;;;;;;;;;;5035573;28;20025;-29
2023/09/10 07:43:56;;;;;;;2.25;2.15;;;;;;;;;;5035195;28;20097;-28
2023/09/10 07:46:22;;;;;;;2.60;2.50;;;;;;;;;;5035186;28;20029;-26
2023/09/10 07:48:48;;;;;;;2.45;2.35;;;;;;;;;;5035361;28;20029;-26
2023/09/10 07:51:14;;;;;;;2.45;2.35;;;;;;;;;;5035141;28;20313;-27
2023/09/10 07:53:40;;;;;;;2.63;2.50;;;;;;;;;;5035033;28;20022;-27
2023/09/10 07:56:07;;;;;;;2.22;2.13;;;;;;;;;;5035010;28;20026;-31
2023/09/10 07:58:33;;;;;;;2.63;2.53;;;;;;;;;;5035268;28;20061;-28
2023/09/10 08:00:59;;;;;;;2.35;2.25;;;;;;;;;;5034914;28;20057;-30
2023/09/10 08:03:25;;;;;;;3.17;2.97;;;;;;;;;;5034842;28;20350;-28
2023/09/10 08:05:51;;;;;;;2.80;2.70;;;;;;;;;;5034676;28;20049;-25
2023/09/10 08:08:18;;;;;;;2.92;2.72;;;;;;;;;;5035313;28;20425;-27
2023/09/10 08:10:45;;;;;;;2.45;2.35;;;;;;;;;;5035040;28;20025;-28
2023/09/10 08:13:14;;;;;;;2.25;2.15;;;;;;;;;;5034933;28;20014;-29
2023/09/10 08:15:43;;;;;;;2.25;2.15;;;;;;;;;;5033853;28;20026;-28
2023/09/10 08:18:11;;;;;;;2.42;2.33;;;;;;;;;;5034989;28;20105;-27
2023/09/10 08:20:44;;;;;;;2.75;2.60;;;;;;;;;;5034945;28;20479;-25
2023/09/10 08:23:11;;;;;;;2.47;2.38;;;;;;;;;;5034817;28;20034;-31
2023/09/10 08:25:37;;;;;;;2.50;2.40;;;;;;;;;;5034899;28;20028;-29
2023/09/10 08:28:03;;;;;;;2.22;2.13;;;;;;;;;;5034490;28;20017;-26
2023/09/10 08:30:29;;;;;;;2.83;2.63;;;;;;;;;;5034848;28;20334;-27
2023/09/10 08:32:55;;;;;;;2.33;2.22;;;;;;;;;;5034623;28;20025;-26
2023/09/10 08:35:22;;;;;;;2.20;2.10;;;;;;;;;;5034765;28;20029;-27
2023/09/10 08:37:49;;;;;;;2.50;2.40;;;;;;;;;;5034781;28;20407;-25
2023/09/10 08:40:18;;;;;;;2.55;2.40;;;;;;;;;;5034528;28;20368;-29
2023/09/10 08:42:44;;;;;;;2.88;2.67;;;;;;;;;;5034400;28;20025;-28
2023/09/10 08:45:10;;;;;;;2.60;2.50;;;;;;;;;;5034784;28;20365;-25
2023/09/10 08:47:41;;;;;;;2.42;2.33;;;;;;;;;;5034431;28;20052;-25
2023/09/10 08:50:11;;;;;;;2.67;2.57;;;;;;;;;;5034645;28;20108;-28
2023/09/10 08:52:41;;;;;;;2.25;2.15;;;;;;;;;;5034658;28;20105;-27
2023/09/10 08:55:07;;;;;;;2.58;2.47;;;;;;;;;;5034358;28;20018;-25
2023/09/10 08:57:37;;;;;;;2.65;2.55;;;;;;;;;;5034326;28;20022;-26
2023/09/10 09:00:06;;;;;;;2.78;2.67;;;;;;;;;;5034304;28;20033;-26
2023/09/10 09:02:33;;;;;;;2.35;2.25;;;;;;;;;;5034229;28;20451;-27
2023/09/10 09:04:59;;;;;;;2.67;2.58;;;;;;;;;;5034183;28;20049;-26
2023/09/10 09:07:27;;;;;;;2.47;2.38;;;;;;;;;;5034314;28;20037;-25
2023/09/10 09:09:54;;;;;;;2.78;2.63;;;;;;;;;;5034668;28;20065;-26
2023/09/10 09:12:20;;;;;;;3.15;2.95;;;;;;;;;;5034352;28;20021;-27
2023/09/10 09:14:47;;;;;;;2.95;2.75;;;;;;;;;;5034466;28;20368;-26
2023/09/10 09:17:14;;;;;;;2.38;2.28;;;;;;;;;;5034170;28;20510;-27
2023/09/10 09:19:44;;;;;;;3.33;3.13;;;;;;;;;;5034047;28;20032;-25
2023/09/10 09:22:11;;;;;;;2.65;2.55;;;;;;;;;;5034057;28;20036;-28
2023/09/10 09:24:37;;;;;;;2.78;2.65;;;;;;;;;;5034329;28;20353;-27
2023/09/10 09:27:04;;;;;;;2.80;2.60;;;;;;;;;;5035518;28;20036;-28
2023/09/10 09:29:31;;;;;;;2.72;2.63;;;;;;;;;;5037691;28;20033;-27
2023/09/10 09:31:57;;;;;;;3.13;2.95;;;;;;;;;;5021013;28;20374;-27
2023/09/10 09:34:23;;;;;;;3.17;2.97;;;;;;;;;;5037933;28;20057;-27
2023/09/10 09:36:51;;;;;;;2.53;2.42;;;;;;;;;;5037660;28;20100;-27
2023/09/10 09:39:17;;;;;;;3.70;3.50;;;;;;;;;;5037842;28;20105;-27
2023/09/10 09:41:47;;;;;;;3.60;3.40;;;;;;;;;;5037472;28;20037;-29
2023/09/10 09:44:14;;;;;;;3.20;3.00;;;;;;;;;;5037490;28;20021;-27
2023/09/10 09:46:40;;;;;;;2.85;2.75;;;;;;;;;;5038011;28;20029;-28
2023/09/10 09:49:06;;;;;;;3.10;2.90;;;;;;;;;;5037324;28;20037;-26
2023/09/10 09:51:32;;;;;;;2.80;2.70;;;;;;;;;;5037323;28;20101;-26
2023/09/10 09:53:59;;;;;;;2.50;2.40;;;;;;;;;;5037530;28;20056;-29
2023/09/10 09:56:25;;;;;;;2.40;2.30;;;;;;;;;;5038058;28;20057;-29
2023/09/10 09:58:51;;;;;;;2.80;2.70;;;;;;;;;;5037455;28;20025;-29
2023/09/10 10:01:21;;;;;;;3.05;2.85;;;;;;;;;;5037193;28;20021;-27
2023/09/10 10:03:48;;;;;;;2.63;2.53;;;;;;;;;;5037329;28;20345;-27
2023/09/10 10:06:16;;;;;;;3.33;3.13;;;;;;;;;;5036874;28;20060;-26
2023/09/10 10:08:48;;;;;;;2.70;2.55;;;;;;;;;;5037690;28;20098;-29
2023/09/10 10:11:14;;;;;;;2.55;2.45;;;;;;;;;;5037268;28;20033;-28
2023/09/10 10:13:40;;;;;;;2.72;2.63;;;;;;;;;;5036905;28;20037;-29
2023/09/10 10:16:07;;;;;;;2.88;2.78;;;;;;;;;;5036935;28;20027;-28
2023/09/10 10:18:34;;;;;;;3.05;2.85;;;;;;;;;;5037427;28;20091;-28
2023/09/10 10:21:00;;;;;;;2.80;2.70;;;;;;;;;;5036849;28;20029;-25
2023/09/10 10:23:27;;;;;;;2.88;2.78;;;;;;;;;;5037002;28;20368;-27
2023/09/10 10:25:54;;;;;;;2.90;2.70;;;;;;;;;;5036962;28;20369;-27
2023/09/10 10:28:21;;;;;;;2.95;2.78;;;;;;;;;;5036903;28;20040;-25
2023/09/10 10:30:52;;;;;;;3.17;2.97;;;;;;;;;;5037493;28;20325;-27
2023/09/10 10:33:20;;;;;;;3.20;3.00;;;;;;;;;;5036588;28;20069;-29
2023/09/10 10:35:56;;;;;;;3.13;2.92;;;;;;;;;;5036547;28;20037;-25
2023/09/10 10:38:22;;;;;;;3.40;3.20;;;;;;;;;;5035864;28;20356;-25
2023/09/10 10:40:50;;;;;;;2.97;2.78;;;;;;;;;;5036727;28;20104;-26
2023/09/10 10:43:20;;;;;;;2.95;2.85;;;;;;;;;;5036597;28;20025;-30
2023/09/10 10:45:47;;;;;;;2.72;2.63;;;;;;;;;;5036372;28;20029;-26
2023/09/10 10:48:18;;;;;;;2.92;2.83;;;;;;;;;;5036524;28;20372;-27
2023/09/10 10:50:45;;;;;;;2.75;2.60;;;;;;;;;;5036618;28;20021;-27
2023/09/10 10:53:20;;;;;;;3.55;3.17;;;;;;;;;;5036167;28;20163;-26
2023/09/10 10:55:50;;;;;;;3.03;2.83;;;;;;;;;;5036198;28;20107;-29
2023/09/10 10:58:17;;;;;;;2.92;2.75;;;;;;;;;;5036450;28;20034;-26
2023/09/10 11:00:43;;;;;;;3.20;3.00;;;;;;;;;;5036022;28;20022;-26
2023/09/10 11:03:10;;;;;;;3.42;3.22;;;;;;;;;;5036210;28;20029;-27
2023/09/10 11:05:57;;;;;;;3.28;3.08;;;;;;;;;;5035835;28;20138;-27
2023/09/10 11:08:30;;;;;;;3.72;3.10;;;;;;;;;;5036597;28;20029;-25
2023/09/10 11:10:57;;;;;;;3.53;3.33;;;;;;;;;;5035909;28;20450;-27
2023/09/10 11:13:23;;;;;;;3.25;3.08;;;;;;;;;;5035780;28;20030;-27
2023/09/10 11:16:04;;;;;;;3.33;3.13;;;;;;;;;;5036053;28;20092;-25
2023/09/10 11:18:30;;;;;;;;;;;;;;;;;;5036779;28;20025;-29
2023/09/10 11:20:56;;;;;;;2.83;2.72;;;;;;;;;;5035733;28;20332;-29
2023/09/10 11:23:22;;;;;;;3.28;3.08;;;;;;;;;;5035546;28;20039;-28
2023/09/10 11:25:49;;;;;;;3.55;3.35;;;;;;;;;;5035847;28;20443;-29
2023/09/10 11:28:34;;;;;;;3.70;3.50;;;;;;;;;;5035459;28;20029;-28
2023/09/10 11:31:03;;;;;;;3.63;3.42;;;;;;;;;;5035463;28;20029;-26
2023/09/10 11:33:30;;;;;;;3.63;3.42;;;;;;;;;;5035413;28;20021;-28
2023/09/10 11:35:58;;;;;;;3.50;3.30;;;;;;;;;;5035679;28;20100;-27
2023/09/10 11:38:29;;;;;;;3.60;3.40;;;;;;;;;;5036394;28;20033;-28
2023/09/10 11:40:56;;;;;;;3.33;3.13;;;;;;;;;;5035616;28;20041;-26
2023/09/10 11:43:23;;;;;;;3.80;3.60;;;;;;;;;;5035178;28;20061;-29
2023/09/10 11:45:49;;;;;;;4.40;4.10;;;;;;;;;;5035174;28;20029;-28
2023/09/10 11:48:15;;;;;;;3.97;3.78;;;;;;;;;;5035080;28;20060;-28
2023/09/10 11:50:44;;;;;;;4.38;4.07;;;;;;;;;;5035262;28;20356;-29
2023/09/10 11:53:10;;;;;;;4.10;3.90;;;;;;;;;;5034979;28;20031;-28
2023/09/10 11:55:36;;;;;;;3.80;3.60;;;;;;;;;;5035067;28;20021;-29
2023/09/10 11:58:02;;;;;;;3.45;3.25;;;;;;;;;;5035248;28;20356;-29
2023/09/10 12:00:28;;;;;;;3.40;3.20;;;;;;;;;;5035537;28;20029;-27
2023/09/10 12:02:58;;;;;;;3.55;3.35;;;;;;;;;;5035118;28;20356;-27
2023/09/10 12:05:25;;;;;;;3.40;3.20;;;;;;;;;;5034674;28;20060;-28
2023/09/10 12:07:52;;;;;;;4.03;3.83;;;;;;;;;;5034780;28;20063;-28
2023/09/10 12:10:18;;;;;;;3.88;3.67;;;;;;;;;;5034811;28;20037;-25
2023/09/10 12:12:46;;;;;;;3.80;3.60;;;;;;;;;;5034782;28;20018;-28
2023/09/10 12:15:13;;;;;;;3.92;3.72;;;;;;;;;;5034749;28;20021;-27
2023/09/10 12:17:39;;;;;;;3.20;3.00;;;;;;;;;;5034665;28;20124;-29
2023/09/10 12:20:05;;;;;;;3.63;3.42;;;;;;;;;;5034731;28;20037;-29
2023/09/10 12:22:32;;;;;;;3.28;3.08;;;;;;;;;;5034677;28;20064;-28
2023/09/10 12:24:59;;;;;;;3.28;3.17;;;;;;;;;;5034716;28;20041;-28
2023/09/10 12:27:25;;;;;;;3.75;3.55;;;;;;;;;;5034604;28;20034;-28
2023/09/10 12:29:51;;;;;;;4.40;4.20;;;;;;;;;;5034494;28;20139;-25
2023/09/10 12:32:17;;;;;;;3.85;3.65;;;;;;;;;;5034521;28;20040;-28
2023/09/10 12:34:43;;;;;;;3.47;3.28;;;;;;;;;;5034575;28;20403;-27
2023/09/10 12:37:14;;;;;;;3.67;3.47;;;;;;;;;;5034785;28;20028;-24
2023/09/10 12:39:43;;;;;;;3.85;3.65;;;;;;;;;;5034811;28;20030;-29
2023/09/10 12:42:10;;;;;;;3.53;3.33;;;;;;;;;;5034328;28;20049;-28
2023/09/10 12:44:39;;;;;;;4.53;4.22;;;;;;;;;;5034486;28;20033;-28
2023/09/10 12:47:06;;;;;;;3.65;3.45;;;;;;;;;;5035141;28;20036;-27
2023/09/10 12:49:33;;;;;;;3.38;3.17;;;;;;;;;;5034563;28;20025;-26
2023/09/10 12:51:59;;;;;;;3.45;3.25;;;;;;;;;;5034345;28;20032;-28
2023/09/10 12:54:25;;;;;;;4.15;3.85;;;;;;;;;;5034361;28;20071;-30
2023/09/10 12:56:51;;;;;;;3.13;2.97;;;;;;;;;;5034638;28;20044;-26
2023/09/10 12:59:19;;;;;;;3.40;3.20;;;;;;;;;;5034562;28;20035;-29
2023/09/10 13:01:45;;;;;;;4.32;4.13;;;;;;;;;;5035297;28;20028;-26
2023/09/10 13:04:11;;;;;;;3.05;2.92;;;;;;;;;;5038812;28;20449;-27
2023/09/10 13:06:37;;;;;;;3.10;2.90;;;;;;;;;;5038048;28;20083;-27
2023/09/10 13:09:04;;;;;;;3.35;3.15;;;;;;;;;;5038393;28;20104;-28
2023/09/10 13:11:30;;;;;;;2.90;2.80;;;;;;;;;;5038372;28;20025;-28
2023/09/10 13:14:01;;;;;;;2.72;2.63;;;;;;;;;;5038255;28;20060;-25
2023/09/10 13:16:28;;;;;;;2.83;2.72;;;;;;;;;;5038607;28;20021;-26
2023/09/10 13:18:54;;;;;;;3.33;3.15;;;;;;;;;;5020505;28;20476;-27
2023/09/10 13:21:20;;;;;;;2.72;2.63;;;;;;;;;;5037936;28;20083;-28
2023/09/10 13:23:46;;;;;;;3.58;3.38;;;;;;;;;;5037805;28;20040;-26
2023/09/10 13:26:13;;;;;;;3.70;3.50;;;;;;;;;;5037852;28;20056;-28
2023/09/10 13:28:39;;;;;;;3.70;3.50;;;;;;;;;;5037682;28;20456;-29
2023/09/10 13:31:05;;;;;;;3.90;3.70;;;;;;;;;;5037745;28;20111;-28
2023/09/10 13:33:31;;;;;;;3.58;3.38;;;;;;;;;;5037586;28;20165;-27
2023/09/10 13:35:57;;;;;;;2.78;2.67;;;;;;;;;;5037948;28;20100;-26
2023/09/10 13:38:24;;;;;;;2.50;2.40;;;;;;;;;;5037621;28;20100;-25
2023/09/10 13:40:56;;;;;;;2.60;2.50;;;;;;;;;;5038344;28;20022;-28
2023/09/10 13:43:22;;;;;;;3.35;3.15;;;;;;;;;;5037406;28;20037;-28
2023/09/10 13:45:49;;;;;;;3.53;3.33;;;;;;;;;;5037415;28;20032;-30
2023/09/10 13:48:15;;;;;;;3.10;2.90;;;;;;;;;;5037620;28;20036;-29
2023/09/10 13:50:41;;;;;;;4.00;3.80;;;;;;;;;;5037673;28;20029;-27
2023/09/10 13:53:07;;;;;;;3.50;3.30;;;;;;;;;;5037256;28;20025;-27
2023/09/10 13:55:33;;;;;;;3.28;3.08;;;;;;;;;;5037313;28;20017;-28
2023/09/10 13:57:59;;;;;;;3.65;3.45;;;;;;;;;;5037303;28;20452;-27
2023/09/10 14:00:25;;;;;;;3.35;3.08;;;;;;;;;;5037514;28;20029;-27
2023/09/10 14:02:51;;;;;;;4.05;3.85;;;;;;;;;;5037353;28;20455;-25
2023/09/10 14:05:18;;;;;;;3.50;3.30;;;;;;;;;;5037176;28;20048;-28
2023/09/10 14:07:44;;;;;;;4.57;4.35;;;;;;;;;;5037373;28;20025;-25
2023/09/10 14:10:10;;;;;;;2.20;2.10;;;;;;;;;;5037203;28;20101;-29
2023/09/10 14:12:36;;;;;;;3.92;3.63;;;;;;;;;;5036496;28;20030;-28
2023/09/10 14:15:02;;;;;;;4.18;3.88;;;;;;;;;;5036808;28;20029;-26
2023/09/10 14:17:28;;;;;;;3.80;3.60;;;;;;;;;;5037229;28;20079;-28
2023/09/10 14:19:54;;;;;;;3.80;3.60;;;;;;;;;;5036807;28;20025;-26
2023/09/10 14:22:21;;;;;;;3.50;3.30;;;;;;;;;;5036723;28;20029;-29
2023/09/10 14:24:47;;;;;;;3.63;3.42;;;;;;;;;;5037328;28;20348;-28
2023/09/10 14:27:13;;;;;;;3.22;3.03;;;;;;;;;;5037024;28;20029;-28
2023/09/10 14:29:39;;;;;;;2.72;2.63;;;;;;;;;;5036871;28;20112;-28
2023/09/10 14:32:05;;;;;;;3.40;3.20;;;;;;;;;;5036833;28;20030;-29
2023/09/10 14:34:31;;;;;;;4.07;3.80;;;;;;;;;;5036885;28;20104;-28
2023/09/10 14:36:57;;;;;;;4.53;4.32;;;;;;;;;;5037099;28;20400;-26
2023/09/10 14:39:23;;;;;;;3.10;2.90;;;;;;;;;;5036504;28;20025;-27
2023/09/10 14:41:49;;;;;;;4.43;4.05;;;;;;;;;;5036627;28;20433;-27